メインページ
METAR-TAF:

METAR-TAF

空港 :

Williams Lake, ブリティッシュコロンビア州, カナダ

緯度: 52-11N, 経度: 122-03W, 海抜: 940m

現時点の気象観測

当レポートは32分前の09:00(UTC)に作成
東/南東の風 4kt
気温 -2°C
湿度 80%
気圧 1006 hPa
視程: 24.1km
高度16000ftの千切れ雲あり

METAR: CYWL 190900Z 12004KT 15SM BKN160 M02/M05 A2972 RMK AC7 SLP099

時間: 01:32 (09:32 UTC)

予報

当レポートは2時間54分前の06:38(UTC)に作成
予報は19日の 07時(UTC)から 19日の 19時(UTC)まで有効
東/南東の風 8kt
視程: 10km
高度12000ftの千切れ雲あり

TAF: CYWL 190638Z 1907/1919 12008KT P6SM BKN120 RMK NXT FCST BY 191300Z

4,000以上の空港の気象観測と天気予報(METAR報とTAF報)

利用可能な観測所は地図上に黄色い丸と赤い丸で示す。

丸の上にカーソルを重ねると観測所名を参照できる。

次にクリックすると気象観測と天気予報を参照できる。

マップの切り替え:黒色「×」印の緑ボタンをクリックして拡大、「-」印の緑ボタンをクリックして縮小、緑色の三角印をクリックして隣りの地図に切り替え


METAR-TAF: